sensor_id;sensor_type;location;lat;lon;timestamp;P1;durP1;ratioP1;P2;durP2;ratioP2
63193;SDS011;49289;51.670;5.624;2023-05-15T00:00:20;16.10;;;10.50;;
63193;SDS011;49289;51.670;5.624;2023-05-15T00:02:07;14.60;;;10.20;;
63193;SDS011;49289;51.670;5.624;2023-05-15T00:03:54;20.60;;;10.80;;
63193;SDS011;49289;51.670;5.624;2023-05-15T00:05:41;15.10;;;10.40;;
63193;SDS011;49289;51.670;5.624;2023-05-15T00:07:28;16.70;;;10.60;;
63193;SDS011;49289;51.670;5.624;2023-05-15T00:09:15;17.50;;;10.80;;
63193;SDS011;49289;51.670;5.624;2023-05-15T00:11:02;15.60;;;10.50;;
63193;SDS011;49289;51.670;5.624;2023-05-15T00:12:49;18.40;;;10.60;;
63193;SDS011;49289;51.670;5.624;2023-05-15T00:14:36;14.90;;;10.70;;
63193;SDS011;49289;51.670;5.624;2023-05-15T00:16:23;17.20;;;10.90;;
63193;SDS011;49289;51.670;5.624;2023-05-15T00:18:11;17.40;;;10.80;;
63193;SDS011;49289;51.670;5.624;2023-05-15T00:19:59;16.20;;;10.80;;
63193;SDS011;49289;51.670;5.624;2023-05-15T00:21:47;18.80;;;11.50;;
63193;SDS011;49289;51.670;5.624;2023-05-15T00:23:35;18.80;;;12.10;;
63193;SDS011;49289;51.670;5.624;2023-05-15T00:25:23;18.10;;;12.20;;
63193;SDS011;49289;51.670;5.624;2023-05-15T00:27:11;16.40;;;11.70;;
63193;SDS011;49289;51.670;5.624;2023-05-15T00:28:59;16.20;;;11.40;;
63193;SDS011;49289;51.670;5.624;2023-05-15T00:30:47;18.00;;;11.40;;
63193;SDS011;49289;51.670;5.624;2023-05-15T00:32:34;18.80;;;11.60;;
63193;SDS011;49289;51.670;5.624;2023-05-15T00:34:21;18.90;;;11.60;;
63193;SDS011;49289;51.670;5.624;2023-05-15T00:36:08;17.80;;;11.80;;
63193;SDS011;49289;51.670;5.624;2023-05-15T00:37:55;16.50;;;11.90;;
63193;SDS011;49289;51.670;5.624;2023-05-15T00:39:42;15.20;;;11.60;;
63193;SDS011;49289;51.670;5.624;2023-05-15T00:41:29;22.10;;;12.30;;
63193;SDS011;49289;51.670;5.624;2023-05-15T00:43:16;18.10;;;11.90;;
63193;SDS011;49289;51.670;5.624;2023-05-15T00:45:04;17.00;;;12.40;;
63193;SDS011;49289;51.670;5.624;2023-05-15T00:46:53;18.10;;;12.00;;
63193;SDS011;49289;51.670;5.624;2023-05-15T00:48:41;21.40;;;12.90;;
63193;SDS011;49289;51.670;5.624;2023-05-15T00:50:28;17.80;;;12.90;;
63193;SDS011;49289;51.670;5.624;2023-05-15T00:52:16;21.30;;;13.80;;
63193;SDS011;49289;51.670;5.624;2023-05-15T00:54:04;21.10;;;13.80;;
63193;SDS011;49289;51.670;5.624;2023-05-15T00:55:52;20.60;;;13.20;;
63193;SDS011;49289;51.670;5.624;2023-05-15T00:57:40;21.90;;;14.00;;
63193;SDS011;49289;51.670;5.624;2023-05-15T00:59:13;22.40;;;14.30;;
63193;SDS011;49289;51.670;5.624;2023-05-15T01:01:01;20.40;;;14.10;;
63193;SDS011;49289;51.670;5.624;2023-05-15T01:02:50;20.80;;;14.60;;
63193;SDS011;49289;51.670;5.624;2023-05-15T01:04:38;21.30;;;14.40;;
63193;SDS011;49289;51.670;5.624;2023-05-15T01:06:25;24.00;;;15.30;;
63193;SDS011;49289;51.670;5.624;2023-05-15T01:08:15;24.30;;;15.30;;
63193;SDS011;49289;51.670;5.624;2023-05-15T01:10:02;24.20;;;14.80;;
63193;SDS011;49289;51.670;5.624;2023-05-15T01:11:52;24.00;;;15.50;;
63193;SDS011;49289;51.670;5.624;2023-05-15T01:13:38;26.30;;;15.60;;
63193;SDS011;49289;51.670;5.624;2023-05-15T01:15:26;24.00;;;15.70;;
63193;SDS011;49289;51.670;5.624;2023-05-15T01:17:14;23.70;;;15.90;;
63193;SDS011;49289;51.670;5.624;2023-05-15T01:19:01;25.00;;;16.70;;
63193;SDS011;49289;51.670;5.624;2023-05-15T01:20:53;23.20;;;15.80;;
63193;SDS011;49289;51.670;5.624;2023-05-15T01:22:46;24.50;;;16.20;;
63193;SDS011;49289;51.670;5.624;2023-05-15T01:24:41;26.40;;;17.10;;
63193;SDS011;49289;51.670;5.624;2023-05-15T01:26:32;28.30;;;16.90;;
63193;SDS011;49289;51.670;5.624;2023-05-15T01:28:34;25.40;;;16.50;;
63193;SDS011;49289;51.670;5.624;2023-05-15T01:30:23;25.80;;;17.40;;
63193;SDS011;49289;51.670;5.624;2023-05-15T01:32:11;25.70;;;17.20;;
63193;SDS011;49289;51.670;5.624;2023-05-15T01:33:57;27.60;;;17.20;;
63193;SDS011;49289;51.670;5.624;2023-05-15T01:35:45;25.20;;;16.60;;
63193;SDS011;49289;51.670;5.624;2023-05-15T01:37:32;24.40;;;17.10;;
63193;SDS011;49289;51.670;5.624;2023-05-15T01:39:20;25.40;;;17.70;;
63193;SDS011;49289;51.670;5.624;2023-05-15T01:41:08;24.00;;;16.60;;
63193;SDS011;49289;51.670;5.624;2023-05-15T01:42:56;28.20;;;18.40;;
63193;SDS011;49289;51.670;5.624;2023-05-15T01:44:43;29.70;;;18.30;;
63193;SDS011;49289;51.670;5.624;2023-05-15T01:46:29;31.90;;;18.40;;
63193;SDS011;49289;51.670;5.624;2023-05-15T01:48:16;32.50;;;19.20;;
63193;SDS011;49289;51.670;5.624;2023-05-15T01:50:03;29.10;;;19.10;;
63193;SDS011;49289;51.670;5.624;2023-05-15T01:51:54;30.00;;;19.90;;
63193;SDS011;49289;51.670;5.624;2023-05-15T01:53:39;33.10;;;20.10;;
63193;SDS011;49289;51.670;5.624;2023-05-15T01:55:26;29.80;;;19.70;;
63193;SDS011;49289;51.670;5.624;2023-05-15T01:57:13;32.40;;;20.10;;
63193;SDS011;49289;51.670;5.624;2023-05-15T01:59:00;29.40;;;19.70;;
63193;SDS011;49289;51.670;5.624;2023-05-15T02:00:47;32.30;;;20.90;;
63193;SDS011;49289;51.670;5.624;2023-05-15T02:02:34;34.30;;;21.50;;
63193;SDS011;49289;51.670;5.624;2023-05-15T02:04:21;32.30;;;21.00;;
63193;SDS011;49289;51.670;5.624;2023-05-15T02:06:09;34.10;;;21.30;;
63193;SDS011;49289;51.670;5.624;2023-05-15T02:07:56;35.80;;;22.30;;
63193;SDS011;49289;51.670;5.624;2023-05-15T02:09:43;33.70;;;21.20;;
63193;SDS011;49289;51.670;5.624;2023-05-15T02:11:30;37.60;;;22.50;;
63193;SDS011;49289;51.670;5.624;2023-05-15T02:13:17;35.80;;;22.10;;
63193;SDS011;49289;51.670;5.624;2023-05-15T02:15:04;37.50;;;22.30;;
63193;SDS011;49289;51.670;5.624;2023-05-15T02:16:53;32.30;;;22.50;;
63193;SDS011;49289;51.670;5.624;2023-05-15T02:18:40;35.50;;;22.10;;
63193;SDS011;49289;51.670;5.624;2023-05-15T02:20:28;35.50;;;22.80;;
63193;SDS011;49289;51.670;5.624;2023-05-15T02:22:15;38.20;;;22.60;;
63193;SDS011;49289;51.670;5.624;2023-05-15T02:24:02;36.10;;;23.30;;
63193;SDS011;49289;51.670;5.624;2023-05-15T02:25:54;36.70;;;22.80;;
63193;SDS011;49289;51.670;5.624;2023-05-15T02:27:42;41.00;;;24.30;;
63193;SDS011;49289;51.670;5.624;2023-05-15T02:29:30;40.00;;;23.70;;
63193;SDS011;49289;51.670;5.624;2023-05-15T02:31:18;35.80;;;22.70;;
63193;SDS011;49289;51.670;5.624;2023-05-15T02:33:06;42.00;;;24.60;;
63193;SDS011;49289;51.670;5.624;2023-05-15T02:34:58;37.30;;;23.40;;
63193;SDS011;49289;51.670;5.624;2023-05-15T02:36:44;38.10;;;24.20;;
63193;SDS011;49289;51.670;5.624;2023-05-15T02:38:32;38.60;;;25.00;;
63193;SDS011;49289;51.670;5.624;2023-05-15T02:40:18;36.50;;;24.00;;
63193;SDS011;49289;51.670;5.624;2023-05-15T02:42:06;38.90;;;23.80;;
63193;SDS011;49289;51.670;5.624;2023-05-15T02:43:55;39.70;;;24.60;;
63193;SDS011;49289;51.670;5.624;2023-05-15T02:45:43;34.50;;;23.40;;
63193;SDS011;49289;51.670;5.624;2023-05-15T02:47:30;38.40;;;24.40;;
63193;SDS011;49289;51.670;5.624;2023-05-15T02:49:18;36.70;;;23.70;;
63193;SDS011;49289;51.670;5.624;2023-05-15T02:51:06;39.20;;;24.60;;
63193;SDS011;49289;51.670;5.624;2023-05-15T02:52:53;39.60;;;25.30;;
63193;SDS011;49289;51.670;5.624;2023-05-15T02:54:47;41.50;;;25.60;;
63193;SDS011;49289;51.670;5.624;2023-05-15T02:56:35;43.20;;;26.40;;
63193;SDS011;49289;51.670;5.624;2023-05-15T02:58:23;44.70;;;26.00;;
63193;SDS011;49289;51.670;5.624;2023-05-15T03:00:11;43.90;;;25.40;;
63193;SDS011;49289;51.670;5.624;2023-05-15T03:02:00;42.40;;;25.30;;
63193;SDS011;49289;51.670;5.624;2023-05-15T03:03:47;40.00;;;24.50;;
63193;SDS011;49289;51.670;5.624;2023-05-15T03:05:35;45.80;;;25.70;;
63193;SDS011;49289;51.670;5.624;2023-05-15T03:07:22;48.10;;;26.20;;
63193;SDS011;49289;51.670;5.624;2023-05-15T03:09:09;47.60;;;25.90;;
63193;SDS011;49289;51.670;5.624;2023-05-15T03:10:56;47.90;;;27.10;;
63193;SDS011;49289;51.670;5.624;2023-05-15T03:12:43;45.60;;;26.50;;
63193;SDS011;49289;51.670;5.624;2023-05-15T03:14:30;46.50;;;26.60;;
63193;SDS011;49289;51.670;5.624;2023-05-15T03:16:17;48.00;;;27.10;;
63193;SDS011;49289;51.670;5.624;2023-05-15T03:18:04;46.20;;;26.70;;
63193;SDS011;49289;51.670;5.624;2023-05-15T03:19:51;47.10;;;26.80;;
63193;SDS011;49289;51.670;5.624;2023-05-15T03:21:39;43.50;;;26.20;;
63193;SDS011;49289;51.670;5.624;2023-05-15T03:23:26;48.30;;;27.50;;
63193;SDS011;49289;51.670;5.624;2023-05-15T03:25:15;50.90;;;28.10;;
63193;SDS011;49289;51.670;5.624;2023-05-15T03:27:03;47.80;;;28.20;;
63193;SDS011;49289;51.670;5.624;2023-05-15T03:28:50;48.60;;;28.10;;
63193;SDS011;49289;51.670;5.624;2023-05-15T03:30:37;48.80;;;27.50;;
63193;SDS011;49289;51.670;5.624;2023-05-15T03:32:17;49.60;;;28.50;;
63193;SDS011;49289;51.670;5.624;2023-05-15T03:34:05;52.00;;;28.40;;
63193;SDS011;49289;51.670;5.624;2023-05-15T03:35:53;50.80;;;29.10;;
63193;SDS011;49289;51.670;5.624;2023-05-15T03:37:41;52.70;;;28.90;;
63193;SDS011;49289;51.670;5.624;2023-05-15T03:39:28;51.40;;;29.90;;
63193;SDS011;49289;51.670;5.624;2023-05-15T03:41:15;56.00;;;31.10;;
63193;SDS011;49289;51.670;5.624;2023-05-15T03:43:02;56.10;;;30.20;;
63193;SDS011;49289;51.670;5.624;2023-05-15T03:44:49;48.30;;;28.80;;
63193;SDS011;49289;51.670;5.624;2023-05-15T03:46:36;57.20;;;30.10;;
63193;SDS011;49289;51.670;5.624;2023-05-15T03:48:24;56.30;;;30.60;;
63193;SDS011;49289;51.670;5.624;2023-05-15T03:50:12;58.30;;;30.00;;
63193;SDS011;49289;51.670;5.624;2023-05-15T03:52:01;57.20;;;30.90;;
63193;SDS011;49289;51.670;5.624;2023-05-15T03:53:49;60.20;;;31.60;;
63193;SDS011;49289;51.670;5.624;2023-05-15T03:55:37;62.40;;;31.70;;
63193;SDS011;49289;51.670;5.624;2023-05-15T03:57:24;54.90;;;29.90;;
63193;SDS011;49289;51.670;5.624;2023-05-15T03:59:11;62.60;;;31.70;;
63193;SDS011;49289;51.670;5.624;2023-05-15T04:00:58;59.40;;;30.60;;
63193;SDS011;49289;51.670;5.624;2023-05-15T04:02:45;57.70;;;30.40;;
63193;SDS011;49289;51.670;5.624;2023-05-15T04:04:32;57.40;;;30.00;;
63193;SDS011;49289;51.670;5.624;2023-05-15T04:06:19;57.00;;;29.70;;
63193;SDS011;49289;51.670;5.624;2023-05-15T04:08:07;53.10;;;28.40;;
63193;SDS011;49289;51.670;5.624;2023-05-15T04:09:55;56.00;;;29.10;;
63193;SDS011;49289;51.670;5.624;2023-05-15T04:11:43;53.30;;;29.10;;
63193;SDS011;49289;51.670;5.624;2023-05-15T04:13:31;56.80;;;29.50;;
63193;SDS011;49289;51.670;5.624;2023-05-15T04:15:19;56.80;;;29.60;;
63193;SDS011;49289;51.670;5.624;2023-05-15T04:17:08;54.40;;;30.00;;
63193;SDS011;49289;51.670;5.624;2023-05-15T04:18:55;51.60;;;28.80;;
63193;SDS011;49289;51.670;5.624;2023-05-15T04:20:43;51.10;;;28.30;;
63193;SDS011;49289;51.670;5.624;2023-05-15T04:22:31;52.50;;;29.30;;
63193;SDS011;49289;51.670;5.624;2023-05-15T04:24:19;52.30;;;28.40;;
63193;SDS011;49289;51.670;5.624;2023-05-15T04:26:06;55.50;;;29.80;;
63193;SDS011;49289;51.670;5.624;2023-05-15T04:27:53;52.30;;;29.00;;
63193;SDS011;49289;51.670;5.624;2023-05-15T04:29:40;53.20;;;28.40;;
63193;SDS011;49289;51.670;5.624;2023-05-15T04:31:27;56.80;;;29.20;;
63193;SDS011;49289;51.670;5.624;2023-05-15T04:33:14;55.10;;;28.40;;
63193;SDS011;49289;51.670;5.624;2023-05-15T04:35:01;55.70;;;28.80;;
63193;SDS011;49289;51.670;5.624;2023-05-15T04:36:48;54.60;;;29.20;;
63193;SDS011;49289;51.670;5.624;2023-05-15T04:38:35;52.90;;;26.60;;
63193;SDS011;49289;51.670;5.624;2023-05-15T04:40:22;49.60;;;26.30;;
63193;SDS011;49289;51.670;5.624;2023-05-15T04:42:09;47.10;;;25.50;;
63193;SDS011;49289;51.670;5.624;2023-05-15T04:43:57;47.60;;;25.90;;
63193;SDS011;49289;51.670;5.624;2023-05-15T04:45:45;54.20;;;27.70;;
63193;SDS011;49289;51.670;5.624;2023-05-15T04:47:33;53.50;;;27.70;;
63193;SDS011;49289;51.670;5.624;2023-05-15T04:49:20;49.50;;;27.40;;
63193;SDS011;49289;51.670;5.624;2023-05-15T04:51:07;45.70;;;24.70;;
63193;SDS011;49289;51.670;5.624;2023-05-15T04:52:54;47.30;;;25.20;;
63193;SDS011;49289;51.670;5.624;2023-05-15T04:54:41;48.70;;;25.70;;
63193;SDS011;49289;51.670;5.624;2023-05-15T04:56:28;49.70;;;25.80;;
63193;SDS011;49289;51.670;5.624;2023-05-15T04:58:16;51.50;;;24.40;;
63193;SDS011;49289;51.670;5.624;2023-05-15T05:00:04;55.10;;;26.40;;
63193;SDS011;49289;51.670;5.624;2023-05-15T05:01:52;56.60;;;27.40;;
63193;SDS011;49289;51.670;5.624;2023-05-15T05:03:40;53.40;;;26.50;;
63193;SDS011;49289;51.670;5.624;2023-05-15T05:05:27;46.70;;;24.50;;
63193;SDS011;49289;51.670;5.624;2023-05-15T05:07:14;47.70;;;24.80;;
63193;SDS011;49289;51.670;5.624;2023-05-15T05:09:01;46.00;;;24.20;;
63193;SDS011;49289;51.670;5.624;2023-05-15T05:10:48;49.20;;;25.50;;
63193;SDS011;49289;51.670;5.624;2023-05-15T05:12:39;43.80;;;24.70;;
63193;SDS011;49289;51.670;5.624;2023-05-15T05:14:27;45.60;;;23.70;;
63193;SDS011;49289;51.670;5.624;2023-05-15T05:16:14;42.20;;;23.70;;
63193;SDS011;49289;51.670;5.624;2023-05-15T05:18:01;42.20;;;24.60;;
63193;SDS011;49289;51.670;5.624;2023-05-15T05:19:49;44.50;;;25.60;;
63193;SDS011;49289;51.670;5.624;2023-05-15T05:21:37;46.80;;;24.90;;
63193;SDS011;49289;51.670;5.624;2023-05-15T05:23:25;41.90;;;24.10;;
63193;SDS011;49289;51.670;5.624;2023-05-15T05:25:14;44.00;;;24.10;;
63193;SDS011;49289;51.670;5.624;2023-05-15T05:27:02;43.30;;;24.70;;
63193;SDS011;49289;51.670;5.624;2023-05-15T05:28:49;42.20;;;24.60;;
63193;SDS011;49289;51.670;5.624;2023-05-15T05:30:37;40.30;;;24.10;;
63193;SDS011;49289;51.670;5.624;2023-05-15T05:32:24;42.00;;;24.20;;
63193;SDS011;49289;51.670;5.624;2023-05-15T05:34:12;40.60;;;24.80;;
63193;SDS011;49289;51.670;5.624;2023-05-15T05:36:00;44.00;;;25.50;;
63193;SDS011;49289;51.670;5.624;2023-05-15T05:37:48;41.80;;;24.30;;
63193;SDS011;49289;51.670;5.624;2023-05-15T05:39:36;45.60;;;25.40;;
63193;SDS011;49289;51.670;5.624;2023-05-15T05:41:24;44.70;;;25.60;;
63193;SDS011;49289;51.670;5.624;2023-05-15T05:43:11;44.50;;;25.80;;
63193;SDS011;49289;51.670;5.624;2023-05-15T05:44:58;46.00;;;26.70;;
63193;SDS011;49289;51.670;5.624;2023-05-15T05:46:45;45.60;;;26.30;;
63193;SDS011;49289;51.670;5.624;2023-05-15T05:48:32;42.80;;;26.90;;
63193;SDS011;49289;51.670;5.624;2023-05-15T05:50:19;44.70;;;27.40;;
63193;SDS011;49289;51.670;5.624;2023-05-15T05:52:09;47.80;;;27.20;;
63193;SDS011;49289;51.670;5.624;2023-05-15T05:53:57;45.90;;;27.40;;
63193;SDS011;49289;51.670;5.624;2023-05-15T05:55:45;45.10;;;27.50;;
63193;SDS011;49289;51.670;5.624;2023-05-15T05:57:33;43.90;;;26.80;;
63193;SDS011;49289;51.670;5.624;2023-05-15T05:59:21;46.00;;;28.50;;
63193;SDS011;49289;51.670;5.624;2023-05-15T06:01:08;45.70;;;28.70;;
63193;SDS011;49289;51.670;5.624;2023-05-15T06:02:56;46.70;;;29.00;;
63193;SDS011;49289;51.670;5.624;2023-05-15T06:04:44;47.60;;;28.90;;
63193;SDS011;49289;51.670;5.624;2023-05-15T06:06:31;42.80;;;26.80;;
63193;SDS011;49289;51.670;5.624;2023-05-15T06:08:18;41.60;;;27.00;;
63193;SDS011;49289;51.670;5.624;2023-05-15T06:10:05;44.70;;;28.30;;
63193;SDS011;49289;51.670;5.624;2023-05-15T06:11:54;43.30;;;26.60;;
63193;SDS011;49289;51.670;5.624;2023-05-15T06:13:41;39.80;;;26.20;;
63193;SDS011;49289;51.670;5.624;2023-05-15T06:15:28;40.70;;;25.50;;
63193;SDS011;49289;51.670;5.624;2023-05-15T06:17:15;39.40;;;24.70;;
63193;SDS011;49289;51.670;5.624;2023-05-15T06:19:03;36.20;;;24.00;;
63193;SDS011;49289;51.670;5.624;2023-05-15T06:20:51;36.20;;;24.20;;
63193;SDS011;49289;51.670;5.624;2023-05-15T06:22:38;35.50;;;24.60;;
63193;SDS011;49289;51.670;5.624;2023-05-15T06:24:26;35.90;;;24.70;;
63193;SDS011;49289;51.670;5.624;2023-05-15T06:26:13;33.40;;;22.80;;
63193;SDS011;49289;51.670;5.624;2023-05-15T06:28:00;35.40;;;22.50;;
63193;SDS011;49289;51.670;5.624;2023-05-15T06:29:47;35.00;;;22.50;;
63193;SDS011;49289;51.670;5.624;2023-05-15T06:31:34;32.40;;;21.50;;
63193;SDS011;49289;51.670;5.624;2023-05-15T06:33:21;32.60;;;20.50;;
63193;SDS011;49289;51.670;5.624;2023-05-15T06:35:09;29.90;;;20.40;;
63193;SDS011;49289;51.670;5.624;2023-05-15T06:36:56;33.20;;;20.60;;
63193;SDS011;49289;51.670;5.624;2023-05-15T06:38:43;30.20;;;20.00;;
63193;SDS011;49289;51.670;5.624;2023-05-15T06:40:30;31.40;;;20.20;;
63193;SDS011;49289;51.670;5.624;2023-05-15T06:42:18;32.10;;;20.60;;
63193;SDS011;49289;51.670;5.624;2023-05-15T06:44:06;30.30;;;20.30;;
63193;SDS011;49289;51.670;5.624;2023-05-15T06:45:53;30.50;;;19.00;;
63193;SDS011;49289;51.670;5.624;2023-05-15T06:47:40;29.70;;;20.20;;
63193;SDS011;49289;51.670;5.624;2023-05-15T06:49:27;26.60;;;18.20;;
63193;SDS011;49289;51.670;5.624;2023-05-15T06:51:14;26.90;;;18.70;;
63193;SDS011;49289;51.670;5.624;2023-05-15T06:53:01;25.70;;;17.40;;
63193;SDS011;49289;51.670;5.624;2023-05-15T06:54:48;25.50;;;16.30;;
63193;SDS011;49289;51.670;5.624;2023-05-15T06:56:35;24.40;;;16.90;;
63193;SDS011;49289;51.670;5.624;2023-05-15T06:58:22;23.80;;;16.40;;
63193;SDS011;49289;51.670;5.624;2023-05-15T07:00:10;21.90;;;16.10;;
63193;SDS011;49289;51.670;5.624;2023-05-15T07:01:58;21.00;;;16.10;;
63193;SDS011;49289;51.670;5.624;2023-05-15T07:03:45;25.90;;;16.40;;
63193;SDS011;49289;51.670;5.624;2023-05-15T07:05:32;24.40;;;16.30;;
63193;SDS011;49289;51.670;5.624;2023-05-15T07:07:20;22.20;;;15.50;;
63193;SDS011;49289;51.670;5.624;2023-05-15T07:09:08;23.30;;;16.20;;
63193;SDS011;49289;51.670;5.624;2023-05-15T07:10:56;24.60;;;16.90;;
63193;SDS011;49289;51.670;5.624;2023-05-15T07:12:44;23.40;;;16.50;;
63193;SDS011;49289;51.670;5.624;2023-05-15T07:14:31;22.70;;;15.90;;
63193;SDS011;49289;51.670;5.624;2023-05-15T07:16:18;25.30;;;17.00;;
63193;SDS011;49289;51.670;5.624;2023-05-15T07:18:05;26.70;;;17.30;;
63193;SDS011;49289;51.670;5.624;2023-05-15T07:19:52;28.20;;;18.40;;
63193;SDS011;49289;51.670;5.624;2023-05-15T07:21:39;28.30;;;18.00;;
63193;SDS011;49289;51.670;5.624;2023-05-15T07:23:27;25.50;;;17.70;;
63193;SDS011;49289;51.670;5.624;2023-05-15T07:25:14;27.10;;;17.40;;
63193;SDS011;49289;51.670;5.624;2023-05-15T07:27:01;25.70;;;17.30;;
63193;SDS011;49289;51.670;5.624;2023-05-15T07:28:50;24.40;;;16.40;;
63193;SDS011;49289;51.670;5.624;2023-05-15T07:30:38;26.00;;;18.30;;
63193;SDS011;49289;51.670;5.624;2023-05-15T07:32:26;25.00;;;17.60;;
63193;SDS011;49289;51.670;5.624;2023-05-15T07:34:13;25.10;;;17.30;;
63193;SDS011;49289;51.670;5.624;2023-05-15T07:36:00;28.40;;;17.70;;
63193;SDS011;49289;51.670;5.624;2023-05-15T07:37:49;26.90;;;18.40;;
63193;SDS011;49289;51.670;5.624;2023-05-15T07:39:36;26.00;;;18.10;;
63193;SDS011;49289;51.670;5.624;2023-05-15T07:41:24;25.70;;;18.00;;
63193;SDS011;49289;51.670;5.624;2023-05-15T07:43:13;25.00;;;18.10;;
63193;SDS011;49289;51.670;5.624;2023-05-15T07:45:01;26.40;;;19.10;;
63193;SDS011;49289;51.670;5.624;2023-05-15T07:46:48;27.70;;;19.20;;
63193;SDS011;49289;51.670;5.624;2023-05-15T07:48:36;26.40;;;18.80;;
63193;SDS011;49289;51.670;5.624;2023-05-15T07:50:24;28.70;;;19.80;;
63193;SDS011;49289;51.670;5.624;2023-05-15T07:52:12;27.10;;;19.60;;
63193;SDS011;49289;51.670;5.624;2023-05-15T07:53:59;31.50;;;20.30;;
63193;SDS011;49289;51.670;5.624;2023-05-15T07:55:46;29.40;;;20.30;;
63193;SDS011;49289;51.670;5.624;2023-05-15T07:57:33;30.80;;;20.80;;
63193;SDS011;49289;51.670;5.624;2023-05-15T07:59:21;27.80;;;20.10;;
63193;SDS011;49289;51.670;5.624;2023-05-15T08:01:09;29.80;;;20.40;;
63193;SDS011;49289;51.670;5.624;2023-05-15T08:02:57;29.70;;;20.30;;
63193;SDS011;49289;51.670;5.624;2023-05-15T08:04:45;28.20;;;20.50;;
63193;SDS011;49289;51.670;5.624;2023-05-15T08:06:32;28.60;;;20.60;;
63193;SDS011;49289;51.670;5.624;2023-05-15T08:08:20;30.10;;;20.30;;
63193;SDS011;49289;51.670;5.624;2023-05-15T08:10:09;28.10;;;19.10;;
63193;SDS011;49289;51.670;5.624;2023-05-15T08:12:02;25.00;;;18.90;;
63193;SDS011;49289;51.670;5.624;2023-05-15T08:13:59;27.20;;;18.70;;
63193;SDS011;49289;51.670;5.624;2023-05-15T08:15:47;25.50;;;17.70;;
63193;SDS011;49289;51.670;5.624;2023-05-15T08:17:34;29.70;;;19.70;;
63193;SDS011;49289;51.670;5.624;2023-05-15T08:19:21;29.40;;;19.80;;
63193;SDS011;49289;51.670;5.624;2023-05-15T08:21:08;29.60;;;20.80;;
63193;SDS011;49289;51.670;5.624;2023-05-15T08:22:55;28.10;;;19.80;;
63193;SDS011;49289;51.670;5.624;2023-05-15T08:24:44;25.80;;;19.50;;
63193;SDS011;49289;51.670;5.624;2023-05-15T08:26:31;28.90;;;19.80;;
63193;SDS011;49289;51.670;5.624;2023-05-15T08:28:19;27.60;;;19.20;;
63193;SDS011;49289;51.670;5.624;2023-05-15T08:30:08;25.30;;;18.90;;
63193;SDS011;49289;51.670;5.624;2023-05-15T08:31:57;25.70;;;17.40;;
63193;SDS011;49289;51.670;5.624;2023-05-15T08:33:44;24.60;;;17.60;;
63193;SDS011;49289;51.670;5.624;2023-05-15T08:35:32;25.60;;;18.10;;
63193;SDS011;49289;51.670;5.624;2023-05-15T08:37:19;26.90;;;18.60;;
63193;SDS011;49289;51.670;5.624;2023-05-15T08:39:07;28.50;;;18.90;;
63193;SDS011;49289;51.670;5.624;2023-05-15T08:40:57;28.80;;;19.90;;
63193;SDS011;49289;51.670;5.624;2023-05-15T08:42:46;27.50;;;20.10;;
63193;SDS011;49289;51.670;5.624;2023-05-15T08:44:32;24.80;;;18.90;;
63193;SDS011;49289;51.670;5.624;2023-05-15T08:46:19;26.30;;;18.60;;
63193;SDS011;49289;51.670;5.624;2023-05-15T08:48:06;25.10;;;18.50;;
63193;SDS011;49289;51.670;5.624;2023-05-15T08:49:57;28.40;;;19.60;;
63193;SDS011;49289;51.670;5.624;2023-05-15T08:51:43;30.00;;;20.30;;
63193;SDS011;49289;51.670;5.624;2023-05-15T08:53:30;30.60;;;20.80;;
63193;SDS011;49289;51.670;5.624;2023-05-15T08:55:18;30.50;;;20.90;;
63193;SDS011;49289;51.670;5.624;2023-05-15T08:57:06;27.70;;;20.80;;
63193;SDS011;49289;51.670;5.624;2023-05-15T08:58:53;29.40;;;21.10;;
63193;SDS011;49289;51.670;5.624;2023-05-15T09:00:41;28.00;;;20.00;;
63193;SDS011;49289;51.670;5.624;2023-05-15T09:02:30;28.10;;;20.30;;
63193;SDS011;49289;51.670;5.624;2023-05-15T09:04:17;27.70;;;20.60;;
63193;SDS011;49289;51.670;5.624;2023-05-15T09:06:04;27.00;;;18.60;;
63193;SDS011;49289;51.670;5.624;2023-05-15T09:07:53;26.30;;;18.60;;
63193;SDS011;49289;51.670;5.624;2023-05-15T09:09:43;24.40;;;18.30;;
63193;SDS011;49289;51.670;5.624;2023-05-15T09:11:31;26.50;;;18.80;;
63193;SDS011;49289;51.670;5.624;2023-05-15T09:13:19;27.80;;;20.10;;
63193;SDS011;49289;51.670;5.624;2023-05-15T09:15:16;26.70;;;18.40;;
63193;SDS011;49289;51.670;5.624;2023-05-15T09:17:03;23.90;;;18.00;;
63193;SDS011;49289;51.670;5.624;2023-05-15T09:18:50;27.90;;;18.30;;
63193;SDS011;49289;51.670;5.624;2023-05-15T09:20:37;23.70;;;18.10;;
63193;SDS011;49289;51.670;5.624;2023-05-15T09:22:24;26.90;;;18.70;;
63193;SDS011;49289;51.670;5.624;2023-05-15T09:24:20;26.60;;;19.30;;
63193;SDS011;49289;51.670;5.624;2023-05-15T09:26:09;28.70;;;20.20;;
63193;SDS011;49289;51.670;5.624;2023-05-15T09:27:56;26.60;;;19.40;;
63193;SDS011;49289;51.670;5.624;2023-05-15T09:29:43;27.60;;;19.40;;
63193;SDS011;49289;51.670;5.624;2023-05-15T09:31:31;23.40;;;18.20;;
63193;SDS011;49289;51.670;5.624;2023-05-15T09:33:18;27.00;;;19.10;;
63193;SDS011;49289;51.670;5.624;2023-05-15T09:35:06;26.10;;;19.40;;
63193;SDS011;49289;51.670;5.624;2023-05-15T09:37:09;24.50;;;18.80;;
63193;SDS011;49289;51.670;5.624;2023-05-15T09:38:57;27.00;;;18.80;;
63193;SDS011;49289;51.670;5.624;2023-05-15T09:40:44;26.20;;;18.80;;
63193;SDS011;49289;51.670;5.624;2023-05-15T09:42:32;24.90;;;17.40;;
63193;SDS011;49289;51.670;5.624;2023-05-15T09:44:24;26.50;;;17.70;;
63193;SDS011;49289;51.670;5.624;2023-05-15T09:46:10;23.60;;;16.20;;
63193;SDS011;49289;51.670;5.624;2023-05-15T09:47:57;23.60;;;17.00;;
63193;SDS011;49289;51.670;5.624;2023-05-15T09:49:44;23.20;;;17.10;;
63193;SDS011;49289;51.670;5.624;2023-05-15T09:51:31;24.50;;;17.80;;
63193;SDS011;49289;51.670;5.624;2023-05-15T09:53:18;22.70;;;16.80;;
63193;SDS011;49289;51.670;5.624;2023-05-15T09:55:06;22.90;;;16.50;;
63193;SDS011;49289;51.670;5.624;2023-05-15T09:56:54;21.20;;;15.90;;
63193;SDS011;49289;51.670;5.624;2023-05-15T09:58:50;21.10;;;15.60;;
63193;SDS011;49289;51.670;5.624;2023-05-15T10:00:37;22.70;;;15.70;;
63193;SDS011;49289;51.670;5.624;2023-05-15T10:02:28;24.80;;;17.60;;
63193;SDS011;49289;51.670;5.624;2023-05-15T10:04:15;24.60;;;17.30;;
63193;SDS011;49289;51.670;5.624;2023-05-15T10:06:03;23.50;;;17.60;;
63193;SDS011;49289;51.670;5.624;2023-05-15T10:07:52;25.10;;;17.80;;
63193;SDS011;49289;51.670;5.624;2023-05-15T10:09:40;24.10;;;17.80;;
63193;SDS011;49289;51.670;5.624;2023-05-15T10:11:28;28.10;;;18.40;;
63193;SDS011;49289;51.670;5.624;2023-05-15T10:13:15;26.90;;;18.80;;
63193;SDS011;49289;51.670;5.624;2023-05-15T10:15:03;26.50;;;18.60;;
63193;SDS011;49289;51.670;5.624;2023-05-15T10:16:51;27.30;;;18.70;;
63193;SDS011;49289;51.670;5.624;2023-05-15T10:18:38;27.80;;;18.80;;
63193;SDS011;49289;51.670;5.624;2023-05-15T10:20:25;27.50;;;19.70;;
63193;SDS011;49289;51.670;5.624;2023-05-15T10:22:13;27.00;;;18.60;;
63193;SDS011;49289;51.670;5.624;2023-05-15T10:24:02;25.10;;;18.70;;
63193;SDS011;49289;51.670;5.624;2023-05-15T10:25:52;28.70;;;19.20;;
63193;SDS011;49289;51.670;5.624;2023-05-15T10:27:37;26.80;;;18.70;;
63193;SDS011;49289;51.670;5.624;2023-05-15T10:29:24;25.10;;;18.60;;